createdAt,value
2019-01-09T00:01:58.050Z,97549.36
2019-01-09T00:04:27.829Z,97556.58
2019-01-09T00:06:57.587Z,97556.58
2019-01-09T00:09:27.078Z,97554.37
2019-01-09T00:11:56.779Z,97540.39
2019-01-09T00:14:26.548Z,97540.39
2019-01-09T00:16:56.574Z,97538.47
2019-01-09T00:19:26.315Z,97538.47
2019-01-09T00:21:55.933Z,97529.55
2019-01-09T00:24:25.437Z,97518.19
2019-01-09T00:26:55.292Z,97517.37
2019-01-09T00:29:24.726Z,97520.55
2019-01-09T00:31:54.428Z,97520.55
2019-01-09T00:34:23.923Z,97517.31
2019-01-09T00:36:53.515Z,97524.52
2019-01-09T00:39:23.090Z,97524.52
2019-01-09T00:41:52.543Z,97525.10
2019-01-09T00:44:22.121Z,97520.80
2019-01-09T00:46:52.070Z,97520.80
2019-01-09T00:49:21.782Z,97522.55
2019-01-09T00:51:51.309Z,97513.30
2019-01-09T00:54:21.178Z,97513.30
2019-01-09T00:56:51.050Z,97516.92
2019-01-09T00:59:20.465Z,97524.47
2019-01-09T01:02:01.013Z,97524.47
2019-01-09T01:05:22.377Z,97514.40
2019-01-09T01:08:56.815Z,97514.40
2019-01-09T01:12:16.080Z,97513.09
2019-01-09T01:15:37.200Z,97510.29
2019-01-09T01:18:34.769Z,97528.99
2019-01-09T01:21:13.041Z,97529.30
2019-01-09T01:24:25.155Z,97526.34
2019-01-09T01:27:03.032Z,97542.49
2019-01-09T01:30:15.244Z,97540.27
2019-01-09T01:33:19.488Z,97540.27
2019-01-09T01:36:29.967Z,97534.38
2019-01-09T01:39:46.807Z,97534.38
2019-01-09T01:42:51.669Z,97532.39
2019-01-09T01:45:48.938Z,97518.19
2019-01-09T01:49:05.095Z,97517.45
2019-01-09T01:51:59.255Z,97527.48
2019-01-09T01:54:56.615Z,97522.08
2019-01-09T01:58:08.502Z,97511.03
2019-01-09T02:01:14.767Z,97500.86
2019-01-09T02:04:13.554Z,97500.86
2019-01-09T02:07:09.747Z,97492.16
2019-01-09T02:09:58.442Z,97496.57
2019-01-09T02:12:58.408Z,97506.35
2019-01-09T02:15:53.392Z,97506.35
2019-01-09T02:18:30.860Z,97514.28
2019-01-09T02:21:42.961Z,97514.50
2019-01-09T02:24:52.743Z,97524.30
2019-01-09T02:28:00.184Z,97508.47
2019-01-09T02:31:10.271Z,97508.47
2019-01-09T02:33:39.925Z,97498.41
2019-01-09T02:36:13.631Z,97498.41
2019-01-09T02:38:40.940Z,97490.05
2019-01-09T02:41:10.912Z,97493.03
2019-01-09T02:43:40.634Z,97493.03
2019-01-09T02:46:10.489Z,97496.78
2019-01-09T02:48:40.104Z,97489.02
2019-01-09T02:51:09.911Z,97489.02
2019-01-09T02:53:39.457Z,97477.39
2019-01-09T02:56:08.974Z,97475.19
2019-01-09T02:58:38.772Z,97467.80
2019-01-09T03:01:08.489Z,97472.27
2019-01-09T03:03:38.150Z,97475.36
2019-01-09T03:06:07.931Z,97473.19
2019-01-09T03:08:37.673Z,97468.81
2019-01-09T03:11:07.079Z,97465.26
2019-01-09T03:13:36.677Z,97447.05
2019-01-09T03:16:06.489Z,97447.05
2019-01-09T03:18:36.381Z,97437.60
2019-01-09T03:21:05.785Z,97433.29
2019-01-09T03:23:35.179Z,97454.39
2019-01-09T03:26:04.690Z,97458.75
2019-01-09T03:28:34.457Z,97472.65
2019-01-09T03:31:04.053Z,97476.25
2019-01-09T03:33:33.750Z,97466.89
2019-01-09T03:36:03.151Z,97471.25
2019-01-09T03:38:32.562Z,97463.47
2019-01-09T03:41:02.351Z,97467.08
2019-01-09T03:43:32.239Z,97466.25
2019-01-09T03:46:01.638Z,97459.16
2019-01-09T03:48:31.058Z,97453.20
2019-01-09T03:51:00.836Z,97463.14
2019-01-09T03:53:30.692Z,97469.63
2019-01-09T03:56:00.520Z,97462.08
2019-01-09T03:58:30.105Z,97451.80
2019-01-09T04:00:59.599Z,97442.62
2019-01-09T04:03:29.593Z,97454.00
2019-01-09T04:05:59.331Z,97437.25
2019-01-09T04:08:29.155Z,97437.55
2019-01-09T04:10:58.866Z,97431.20
2019-01-09T04:13:28.661Z,97423.08
2019-01-09T04:15:58.518Z,97425.53
2019-01-09T04:18:28.351Z,97418.66
2019-01-09T04:20:58.232Z,97415.62
2019-01-09T04:23:27.809Z,97419.45
2019-01-09T04:25:57.576Z,97416.17
2019-01-09T04:28:27.274Z,97419.41
2019-01-09T04:30:56.829Z,97424.80
2019-01-09T04:33:26.640Z,97429.00
2019-01-09T04:35:56.400Z,97424.70
2019-01-09T04:38:25.930Z,97425.91
2019-01-09T04:40:55.431Z,97431.64
2019-01-09T04:43:25.140Z,97427.09
2019-01-09T04:45:54.940Z,97425.95
2019-01-09T04:48:24.668Z,97432.13
2019-01-09T04:50:54.307Z,97427.64
2019-01-09T04:53:24.098Z,97424.75
2019-01-09T04:55:53.712Z,97419.42
2019-01-09T04:58:23.167Z,97416.26
2019-01-09T05:00:52.706Z,97415.08
2019-01-09T05:03:22.556Z,97427.28
2019-01-09T05:05:51.957Z,97430.45
2019-01-09T05:08:21.551Z,97435.39
2019-01-09T05:10:51.057Z,97429.53
2019-01-09T05:13:20.911Z,97442.45
2019-01-09T05:15:50.296Z,97447.27
2019-01-09T05:18:19.845Z,97447.45
2019-01-09T05:20:49.379Z,97439.05
2019-01-09T05:23:18.911Z,97437.42
2019-01-09T05:25:48.582Z,97433.02
2019-01-09T05:28:18.340Z,97427.37
2019-01-09T05:30:48.146Z,97439.72
2019-01-09T05:33:17.727Z,97439.72
2019-01-09T05:35:47.269Z,97433.77
2019-01-09T05:38:17.165Z,97429.24
2019-01-09T05:40:46.604Z,97429.24
2019-01-09T05:43:16.141Z,97430.01
2019-01-09T05:45:45.653Z,97435.36
2019-01-09T05:48:15.306Z,97433.82
2019-01-09T05:50:44.949Z,97433.82
2019-01-09T05:53:14.358Z,97424.45
2019-01-09T05:55:44.180Z,97426.45
2019-01-09T05:58:13.700Z,97433.67
2019-01-09T06:00:43.489Z,97427.73
2019-01-09T06:03:13.076Z,97441.75
2019-01-09T06:05:42.920Z,97443.16
2019-01-09T06:08:12.769Z,97443.16
2019-01-09T06:10:42.198Z,97441.94
2019-01-09T06:13:12.031Z,97441.94
2019-01-09T06:15:41.912Z,97452.23
2019-01-09T06:18:11.601Z,97450.27
2019-01-09T06:20:41.161Z,97440.82
2019-01-09T06:23:10.982Z,97436.70
2019-01-09T06:25:40.478Z,97436.70
2019-01-09T06:28:10.339Z,97442.94
2019-01-09T06:30:40.106Z,97442.94
2019-01-09T06:33:09.510Z,97425.34
2019-01-09T06:35:39.293Z,97420.81
2019-01-09T06:38:08.796Z,97411.84
2019-01-09T06:40:38.664Z,97414.98
2019-01-09T06:43:08.242Z,97414.98
2019-01-09T06:45:37.884Z,97406.44
2019-01-09T06:48:07.671Z,97401.53
2019-01-09T06:50:37.355Z,97401.53
2019-01-09T06:53:06.926Z,97409.67
2019-01-09T06:55:36.502Z,97397.48
2019-01-09T06:58:05.877Z,97414.41
2019-01-09T07:00:35.656Z,97405.98
2019-01-09T07:03:05.416Z,97415.58
2019-01-09T07:05:34.875Z,97423.68
2019-01-09T07:08:04.427Z,97412.97
2019-01-09T07:10:34.138Z,97415.59
2019-01-09T07:13:04.054Z,97417.42
2019-01-09T07:15:33.500Z,97404.44
2019-01-09T07:18:03.193Z,97402.45
2019-01-09T07:20:32.697Z,97402.94
2019-01-09T07:23:02.291Z,97392.70
2019-01-09T07:25:31.945Z,97389.52
2019-01-09T07:28:01.490Z,97405.09
2019-01-09T07:30:31.284Z,97399.25
2019-01-09T07:33:00.709Z,97404.28
2019-01-09T07:35:30.616Z,97394.50
2019-01-09T07:38:00.564Z,97398.17
2019-01-09T07:40:30.224Z,97384.58
2019-01-09T07:42:59.653Z,97392.09
2019-01-09T07:45:29.490Z,97400.89
2019-01-09T07:47:58.979Z,97417.73
2019-01-09T07:50:28.710Z,97426.44
2019-01-09T07:52:58.350Z,97428.73
2019-01-09T07:55:27.956Z,97418.07
2019-01-09T07:57:57.682Z,97403.92
2019-01-09T08:00:27.382Z,97407.91
2019-01-09T08:02:56.775Z,97399.80
2019-01-09T08:05:26.499Z,97402.00
2019-01-09T08:07:56.349Z,97399.06
2019-01-09T08:10:25.912Z,97403.84
2019-01-09T08:12:55.666Z,97396.99
2019-01-09T08:15:25.188Z,97390.59
2019-01-09T08:17:54.825Z,97393.09
2019-01-09T08:20:24.657Z,97386.98
2019-01-09T08:22:54.416Z,97393.72
2019-01-09T08:25:24.079Z,97397.15
2019-01-09T08:27:53.541Z,97401.76
2019-01-09T08:30:23.040Z,97408.24
2019-01-09T08:32:52.951Z,97413.81
2019-01-09T08:35:22.655Z,97409.61
2019-01-09T08:37:52.404Z,97407.57
2019-01-09T08:40:23.169Z,97411.11
2019-01-09T08:42:53.049Z,97415.47
2019-01-09T08:45:22.753Z,97413.82
2019-01-09T08:47:52.503Z,97412.56
2019-01-09T08:50:22.209Z,97410.42
2019-01-09T08:52:51.605Z,97406.55
2019-01-09T08:55:21.108Z,97411.27
2019-01-09T08:57:50.906Z,97409.50
2019-01-09T09:00:20.637Z,97409.07
2019-01-09T09:02:50.173Z,97412.47
2019-01-09T09:05:19.974Z,97406.81
2019-01-09T09:07:57.552Z,97405.95
2019-01-09T09:10:27.213Z,97406.77
2019-01-09T09:12:56.656Z,97408.06
2019-01-09T09:15:26.564Z,97396.17
2019-01-09T09:17:56.561Z,97395.34
2019-01-09T09:20:26.254Z,97399.22
2019-01-09T09:22:55.638Z,97398.35
2019-01-09T09:25:25.388Z,97392.69
2019-01-09T09:27:55.144Z,97395.69
2019-01-09T09:30:24.781Z,97395.27
2019-01-09T09:32:57.477Z,97384.92
2019-01-09T09:35:27.056Z,97381.89
2019-01-09T09:37:56.468Z,97379.72
2019-01-09T09:40:26.399Z,97373.27
2019-01-09T09:42:56.195Z,97364.67
2019-01-09T09:45:25.713Z,97363.84
2019-01-09T09:47:55.108Z,97368.24
2019-01-09T09:50:24.887Z,97371.63
2019-01-09T09:52:54.692Z,97362.16
2019-01-09T09:55:24.441Z,97365.98
2019-01-09T09:57:54.019Z,97361.70
2019-01-09T10:00:23.769Z,97356.98
2019-01-09T10:02:53.406Z,97348.81
2019-01-09T10:05:22.997Z,97347.97
2019-01-09T10:07:52.395Z,97346.23
2019-01-09T10:10:22.257Z,97344.53
2019-01-09T10:12:51.664Z,97339.80
2019-01-09T10:15:21.501Z,97336.76
2019-01-09T10:17:51.394Z,97337.59
2019-01-09T10:20:20.888Z,97339.77
2019-01-09T10:22:50.616Z,97344.08
2019-01-09T10:25:20.117Z,97340.63
2019-01-09T10:27:49.776Z,97332.45
2019-01-09T10:30:20.096Z,97337.59
2019-01-09T10:32:49.648Z,97334.70
2019-01-09T10:35:19.543Z,97328.70
2019-01-09T10:37:49.813Z,97327.84
2019-01-09T10:40:20.316Z,97326.13
2019-01-09T10:42:49.805Z,97327.45
2019-01-09T10:45:21.305Z,97319.34
2019-01-09T10:47:51.250Z,97326.16
2019-01-09T10:50:20.995Z,97311.56
2019-01-09T10:52:50.880Z,97316.27
2019-01-09T10:55:20.417Z,97315.81
2019-01-09T10:57:50.140Z,97308.14
2019-01-09T11:00:22.013Z,97310.70
2019-01-09T11:02:51.771Z,97313.23
2019-01-09T11:05:21.602Z,97307.19
2019-01-09T11:07:51.092Z,97303.29
2019-01-09T11:10:21.282Z,97295.57
2019-01-09T11:12:50.812Z,97289.17
2019-01-09T11:15:20.543Z,97283.19
2019-01-09T11:17:50.276Z,97288.34
2019-01-09T11:20:21.237Z,97275.47
2019-01-09T11:22:51.065Z,97275.91
2019-01-09T11:25:23.187Z,97270.34
2019-01-09T11:27:52.896Z,97270.78
2019-01-09T11:30:23.730Z,97260.91
2019-01-09T11:32:53.224Z,97260.50
2019-01-09T11:35:24.788Z,97257.08
2019-01-09T11:37:54.558Z,97252.34
2019-01-09T11:40:24.322Z,97247.13
2019-01-09T11:42:53.914Z,97253.14
2019-01-09T11:45:23.514Z,97252.72
2019-01-09T11:47:53.297Z,97253.95
2019-01-09T11:50:22.795Z,97247.04
2019-01-09T11:52:52.683Z,97244.02
2019-01-09T11:55:22.232Z,97243.13
2019-01-09T11:57:51.843Z,97231.00
2019-01-09T12:00:23.794Z,97225.37
2019-01-09T12:02:53.378Z,97213.28
2019-01-09T12:05:24.016Z,97214.55
2019-01-09T12:07:53.647Z,97214.45
2019-01-09T12:10:29.955Z,97216.67
2019-01-09T12:12:55.851Z,97200.12
2019-01-09T12:15:25.636Z,97205.76
2019-01-09T12:17:55.380Z,97198.38
2019-01-09T12:20:24.771Z,97199.61
2019-01-09T12:22:54.754Z,97192.22
2019-01-09T12:25:24.252Z,97190.39
2019-01-09T12:27:54.223Z,97196.73
2019-01-09T12:30:28.921Z,97192.06
2019-01-09T12:32:58.840Z,97185.75
2019-01-09T12:35:28.669Z,97181.55
2019-01-09T12:37:58.360Z,97171.22
2019-01-09T12:40:28.101Z,97169.59
2019-01-09T12:42:57.514Z,97165.25
2019-01-09T12:45:27.304Z,97167.48
2019-01-09T12:47:56.988Z,97173.45
2019-01-09T12:50:27.425Z,97170.95
2019-01-09T12:52:57.174Z,97170.45
2019-01-09T12:55:26.822Z,97174.73
2019-01-09T12:57:56.605Z,97172.10
2019-01-09T13:00:30.386Z,97166.53
2019-01-09T13:03:00.172Z,97171.68
2019-01-09T13:05:29.554Z,97182.52
2019-01-09T13:07:58.953Z,97183.32
2019-01-09T13:10:28.564Z,97180.66
2019-01-09T13:12:58.209Z,97183.15
2019-01-09T13:15:27.878Z,97179.65
2019-01-09T13:17:57.612Z,97184.05
2019-01-09T13:20:27.372Z,97175.17
2019-01-09T13:22:56.897Z,97171.69
2019-01-09T13:25:26.716Z,97169.52
2019-01-09T13:27:56.581Z,97159.97
2019-01-09T13:30:26.359Z,97171.99
2019-01-09T13:32:56.071Z,97165.61
2019-01-09T13:35:25.785Z,97160.13
2019-01-09T13:37:55.588Z,97157.20
2019-01-09T13:40:25.284Z,97166.19
2019-01-09T13:42:55.004Z,97161.50
2019-01-09T13:45:24.598Z,97159.77
2019-01-09T13:47:54.461Z,97149.43
2019-01-09T13:50:24.183Z,97153.23
2019-01-09T13:52:53.929Z,97145.09
2019-01-09T13:55:23.814Z,97139.93
2019-01-09T13:57:53.485Z,97138.98
2019-01-09T14:00:23.899Z,97134.34
2019-01-09T14:02:53.308Z,97132.61
2019-01-09T14:05:23.108Z,97124.03
2019-01-09T14:07:52.891Z,97118.00
2019-01-09T14:10:24.747Z,97121.39
2019-01-09T14:12:54.481Z,97109.34
2019-01-09T14:15:24.261Z,97103.01
2019-01-09T14:17:53.705Z,97106.95
2019-01-09T14:20:23.345Z,97106.91
2019-01-09T14:22:52.965Z,97106.92
2019-01-09T14:25:22.369Z,97111.72
2019-01-09T14:27:51.999Z,97106.97
2019-01-09T14:30:27.382Z,97100.95
2019-01-09T14:32:57.203Z,97099.21
2019-01-09T14:35:26.605Z,97091.03
2019-01-09T14:37:56.004Z,97099.26
2019-01-09T14:40:25.708Z,97097.95
2019-01-09T14:42:55.454Z,97090.25
2019-01-09T14:45:25.192Z,97094.61
2019-01-09T14:47:54.880Z,97104.57
2019-01-09T14:50:25.553Z,97092.58
2019-01-09T14:52:55.099Z,97090.05
2019-01-09T14:55:24.695Z,97089.64
2019-01-09T14:57:54.566Z,97072.06
2019-01-09T15:00:25.994Z,97078.08
2019-01-09T15:02:55.961Z,97074.27
2019-01-09T15:05:25.557Z,97075.56
2019-01-09T15:07:55.240Z,97068.64
2019-01-09T15:10:31.476Z,97064.38
2019-01-09T15:13:01.114Z,97065.20
2019-01-09T15:15:30.898Z,97061.81
2019-01-09T15:18:00.493Z,97065.25
2019-01-09T15:20:30.596Z,97055.37
2019-01-09T15:23:00.284Z,97062.66
2019-01-09T15:25:29.798Z,97051.09
2019-01-09T15:27:59.617Z,97057.55
2019-01-09T15:30:31.027Z,97048.97
2019-01-09T15:33:00.725Z,97060.13
2019-01-09T15:35:30.124Z,97050.66
2019-01-09T15:37:59.733Z,97060.98
2019-01-09T15:40:30.543Z,97046.39
2019-01-09T15:43:00.583Z,97050.70
2019-01-09T15:45:30.016Z,97039.11
2019-01-09T15:47:59.479Z,97040.39
2019-01-09T15:50:29.539Z,97041.23
2019-01-09T15:52:59.030Z,97039.08
2019-01-09T15:55:28.515Z,97034.40
2019-01-09T15:57:58.226Z,97039.55
2019-01-09T16:00:33.670Z,97047.70
2019-01-09T16:03:03.581Z,97045.97
2019-01-09T16:05:32.982Z,97035.27
2019-01-09T16:08:02.945Z,97036.13
2019-01-09T16:10:36.338Z,97036.52
2019-01-09T16:13:07.240Z,97039.52
2019-01-09T16:15:36.786Z,97027.95
2019-01-09T16:18:06.867Z,97027.94
2019-01-09T16:20:36.754Z,97009.94
2019-01-09T16:23:06.179Z,97017.20
2019-01-09T16:25:35.692Z,97008.64
2019-01-09T16:28:06.393Z,97012.08
2019-01-09T16:30:46.984Z,97011.62
2019-01-09T16:33:16.589Z,97013.31
2019-01-09T16:35:46.375Z,96999.98
2019-01-09T16:38:15.892Z,97003.00
2019-01-09T16:40:45.494Z,97010.30
2019-01-09T16:43:15.637Z,97005.21
2019-01-09T16:45:45.151Z,96996.67
2019-01-09T16:48:16.252Z,96994.95
2019-01-09T16:50:45.685Z,96986.38
2019-01-09T16:53:15.158Z,96980.82
2019-01-09T16:55:44.858Z,96979.91
2019-01-09T16:58:14.344Z,96982.49
2019-01-09T17:00:44.027Z,96979.47
2019-01-09T17:03:13.456Z,96980.31
2019-01-09T17:05:42.948Z,96978.62
2019-01-09T17:08:12.828Z,96971.75
2019-01-09T17:10:42.264Z,96970.05
2019-01-09T17:13:12.024Z,96967.52
2019-01-09T17:15:41.532Z,96968.82
2019-01-09T17:18:11.349Z,96948.27
2019-01-09T17:20:41.153Z,96948.27
2019-01-09T17:23:10.827Z,96947.86
2019-01-09T17:25:40.467Z,96949.55
2019-01-09T17:28:10.561Z,96949.55
2019-01-09T17:30:39.997Z,96950.84
2019-01-09T17:33:09.540Z,96943.11
2019-01-09T17:35:38.994Z,96943.11
2019-01-09T17:38:08.911Z,96941.81
2019-01-09T17:40:41.326Z,96930.70
2019-01-09T17:43:09.710Z,96941.81
2019-01-09T17:45:40.533Z,96928.11
2019-01-09T17:48:10.294Z,96928.53
2019-01-09T17:50:40.488Z,96924.23
2019-01-09T17:53:10.264Z,96925.11
2019-01-09T17:55:40.008Z,96921.29
2019-01-09T17:58:09.469Z,96916.56
2019-01-09T18:00:41.405Z,96919.13
2019-01-09T18:03:11.178Z,96916.98
2019-01-09T18:05:40.600Z,96907.58
2019-01-09T18:08:11.133Z,96907.14
2019-01-09T18:10:49.793Z,96902.42
2019-01-09T18:13:11.865Z,96898.59
2019-01-09T18:15:43.151Z,96890.01
2019-01-09T18:18:12.701Z,96885.30
2019-01-09T18:20:42.194Z,96893.00
2019-01-09T18:23:11.618Z,96880.60
2019-01-09T18:25:41.108Z,96889.14
2019-01-09T18:28:12.119Z,96878.88
2019-01-09T18:31:25.266Z,96881.46
2019-01-09T18:34:03.143Z,96877.17
2019-01-09T18:37:12.693Z,96878.89
2019-01-09T18:40:01.363Z,96866.91
2019-01-09T18:42:45.500Z,96866.91
2019-01-09T18:46:01.902Z,96869.91
2019-01-09T18:49:10.698Z,96868.19
2019-01-09T18:52:11.059Z,96863.91
2019-01-09T18:54:40.984Z,96866.92
2019-01-09T18:57:10.471Z,96846.36
2019-01-09T18:59:40.090Z,96857.48
2019-01-09T19:02:11.617Z,96847.21
2019-01-09T19:04:41.304Z,96840.78
2019-01-09T19:07:11.353Z,96840.38
2019-01-09T19:09:42.159Z,96826.20
2019-01-09T19:12:12.206Z,96826.20
2019-01-09T19:14:41.895Z,96815.48
2019-01-09T19:17:11.860Z,96815.48
2019-01-09T19:19:41.297Z,96822.32
2019-01-09T19:22:10.953Z,96813.31
2019-01-09T19:24:40.505Z,96819.33
2019-01-09T19:27:10.350Z,96818.90
2019-01-09T19:29:41.830Z,96816.36
2019-01-09T19:32:11.456Z,96818.95
2019-01-09T19:34:41.324Z,96821.95
2019-01-09T19:37:11.023Z,96825.36
2019-01-09T19:39:40.530Z,96815.53
2019-01-09T19:42:10.242Z,96814.24
2019-01-09T19:44:40.439Z,96806.11
2019-01-09T19:47:10.224Z,96810.41
2019-01-09T19:49:40.107Z,96804.41
2019-01-09T19:52:09.592Z,96801.00
2019-01-09T19:54:39.370Z,96795.42
2019-01-09T19:57:09.099Z,96790.27
2019-01-09T19:59:38.721Z,96790.27
2019-01-09T20:02:08.359Z,96775.28
2019-01-09T20:04:38.363Z,96775.28
2019-01-09T20:07:08.030Z,96779.55
2019-01-09T20:09:38.636Z,96781.25
2019-01-09T20:12:08.491Z,96778.25
2019-01-09T20:14:38.358Z,96784.67
2019-01-09T20:17:08.179Z,96788.52
2019-01-09T20:19:38.029Z,96788.52
2019-01-09T20:22:07.859Z,96781.22
2019-01-09T20:24:37.625Z,96781.63
2019-01-09T20:27:07.093Z,96770.09
2019-01-09T20:29:38.007Z,96774.36
2019-01-09T20:32:07.745Z,96775.66
2019-01-09T20:34:37.367Z,96774.77
2019-01-09T20:37:06.981Z,96764.50
2019-01-09T20:39:36.381Z,96765.77
2019-01-09T20:42:06.026Z,96764.92
2019-01-09T20:44:35.887Z,96761.48
2019-01-09T20:47:05.857Z,96765.32
2019-01-09T20:49:35.448Z,96763.64
2019-01-09T20:52:05.472Z,96766.21
2019-01-09T20:54:35.020Z,96778.66
2019-01-09T20:57:06.347Z,96776.11
2019-01-09T20:59:35.848Z,96770.08
2019-01-09T21:02:05.917Z,96774.84
2019-01-09T21:04:35.557Z,96774.84
2019-01-09T21:07:05.600Z,96760.67
2019-01-09T21:09:35.278Z,96766.66
2019-01-09T21:12:05.254Z,96766.65
2019-01-09T21:14:34.757Z,96766.65
2019-01-09T21:17:04.783Z,96766.66
2019-01-09T21:19:34.282Z,96761.05
2019-01-09T21:22:04.338Z,96760.16
2019-01-09T21:24:33.982Z,96757.61
2019-01-09T21:27:04.224Z,96761.03
2019-01-09T21:29:33.892Z,96760.22
2019-01-09T21:32:03.389Z,96746.48
2019-01-09T21:34:32.815Z,96731.92
2019-01-09T21:37:02.605Z,96731.92
2019-01-09T21:39:32.019Z,96743.02
2019-01-09T21:42:02.590Z,96735.34
2019-01-09T21:44:32.383Z,96735.34
2019-01-09T21:47:02.078Z,96746.05
2019-01-09T21:49:31.751Z,96740.01
2019-01-09T21:52:01.286Z,96733.57
2019-01-09T21:54:31.069Z,96733.57
2019-01-09T21:57:00.783Z,96733.52
2019-01-09T21:59:30.185Z,96742.52
2019-01-09T22:01:59.793Z,96741.23
2019-01-09T22:04:29.659Z,96738.67
2019-01-09T22:06:59.155Z,96744.70
2019-01-09T22:09:29.002Z,96739.55
2019-01-09T22:12:02.539Z,96748.97
2019-01-09T22:14:30.285Z,96743.81
2019-01-09T22:16:59.793Z,96743.43
2019-01-09T22:19:29.383Z,96752.86
